createdAt,value
2022-12-08T00:01:37.685Z,1.10
2022-12-08T00:04:05.260Z,1.10
2022-12-08T00:07:02.282Z,1.10
2022-12-08T00:09:38.712Z,1.10
2022-12-08T00:12:09.166Z,1.10
2022-12-08T00:14:38.659Z,1.10
2022-12-08T00:17:07.616Z,1.10
2022-12-08T00:19:34.345Z,1.10
2022-12-08T00:22:01.655Z,1.10
2022-12-08T00:24:33.382Z,1.10
2022-12-08T00:27:00.212Z,1.10
2022-12-08T00:29:26.946Z,1.10
2022-12-08T00:31:54.080Z,1.10
2022-12-08T00:34:21.156Z,1.10
2022-12-08T00:36:47.863Z,1.00
2022-12-08T00:39:16.378Z,1.00
2022-12-08T00:42:02.064Z,0.90
2022-12-08T00:44:28.768Z,0.80
2022-12-08T00:46:55.948Z,0.80
2022-12-08T00:49:23.105Z,0.80
2022-12-08T00:51:49.869Z,0.80
2022-12-08T00:54:18.139Z,0.80
2022-12-08T00:56:44.875Z,0.80
2022-12-08T00:59:11.640Z,0.80
2022-12-08T01:01:38.402Z,0.80
2022-12-08T01:04:11.823Z,0.80
2022-12-08T01:06:39.330Z,0.80
2022-12-08T01:09:08.061Z,0.80
2022-12-08T01:11:36.140Z,0.70
2022-12-08T01:14:03.395Z,0.80
2022-12-08T01:16:33.896Z,0.80
2022-12-08T01:19:01.041Z,0.80
2022-12-08T01:21:28.233Z,0.80
2022-12-08T01:23:55.512Z,0.70
2022-12-08T01:26:22.653Z,0.70
2022-12-08T01:28:49.365Z,0.70
2022-12-08T01:31:18.378Z,0.70
2022-12-08T01:33:45.490Z,0.70
2022-12-08T01:36:22.337Z,0.70
2022-12-08T01:38:49.268Z,0.70
2022-12-08T01:41:18.431Z,0.70
2022-12-08T01:44:18.016Z,0.70
2022-12-08T01:46:47.275Z,0.70
2022-12-08T01:49:16.762Z,0.70
2022-12-08T01:52:12.418Z,0.70
2022-12-08T01:55:00.437Z,0.70
2022-12-08T01:57:43.278Z,0.70
2022-12-08T02:00:14.709Z,0.70
2022-12-08T02:03:00.260Z,0.70
2022-12-08T02:05:31.134Z,0.70
2022-12-08T02:07:59.955Z,0.70
2022-12-08T02:10:31.245Z,0.80
2022-12-08T02:12:59.201Z,0.70
2022-12-08T02:15:43.579Z,0.70
2022-12-08T02:18:35.686Z,0.70
2022-12-08T02:21:08.798Z,0.70
2022-12-08T02:23:53.079Z,0.70
2022-12-08T02:27:05.329Z,0.70
2022-12-08T02:30:01.674Z,0.60
2022-12-08T02:33:06.534Z,0.70
2022-12-08T02:35:52.844Z,0.70
2022-12-08T02:39:08.694Z,0.70
2022-12-08T02:42:12.720Z,0.70
2022-12-08T02:45:03.617Z,0.60
2022-12-08T02:47:32.092Z,0.60
2022-12-08T02:49:59.396Z,0.50
2022-12-08T02:52:26.016Z,0.60
2022-12-08T02:55:03.228Z,0.60
2022-12-08T02:58:06.050Z,0.70
2022-12-08T03:00:49.971Z,0.70
2022-12-08T03:03:25.651Z,0.70
2022-12-08T03:06:06.691Z,0.70
2022-12-08T03:08:42.196Z,0.70
2022-12-08T03:11:20.271Z,0.70
2022-12-08T03:13:53.883Z,0.70
2022-12-08T03:16:25.182Z,0.70
2022-12-08T03:19:14.818Z,0.70
2022-12-08T03:21:45.718Z,0.60
2022-12-08T03:24:15.138Z,0.60
2022-12-08T03:26:48.817Z,0.60
2022-12-08T03:29:15.967Z,0.70
2022-12-08T03:31:50.778Z,0.70
2022-12-08T03:34:18.668Z,0.60
2022-12-08T03:36:45.811Z,0.60
2022-12-08T03:39:12.569Z,0.60
2022-12-08T03:41:39.300Z,0.60
2022-12-08T03:44:06.101Z,0.50
2022-12-08T03:46:32.885Z,0.50
2022-12-08T03:48:59.768Z,0.40
2022-12-08T03:51:27.206Z,0.40
2022-12-08T03:53:54.145Z,0.40
2022-12-08T03:56:30.613Z,0.40
2022-12-08T03:58:57.379Z,0.40
2022-12-08T04:01:25.027Z,0.40
2022-12-08T04:03:52.357Z,0.40
2022-12-08T04:06:19.921Z,0.40
2022-12-08T04:08:46.671Z,0.40
2022-12-08T04:11:13.509Z,0.40
2022-12-08T04:13:41.771Z,0.40
2022-12-08T04:16:09.617Z,0.40
2022-12-08T04:18:36.342Z,0.40
2022-12-08T04:21:03.181Z,0.40
2022-12-08T04:23:30.073Z,0.40
2022-12-08T04:25:56.836Z,0.40
2022-12-08T04:28:23.515Z,0.40
2022-12-08T04:30:50.266Z,0.40
2022-12-08T04:33:17.533Z,0.40
2022-12-08T04:35:44.292Z,0.40
2022-12-08T04:38:11.081Z,0.40
2022-12-08T04:40:37.974Z,0.40
2022-12-08T04:43:04.841Z,0.40
2022-12-08T04:45:32.192Z,0.40
2022-12-08T04:48:02.333Z,0.30
2022-12-08T04:50:29.135Z,0.30
2022-12-08T04:52:55.871Z,0.30
2022-12-08T04:55:22.775Z,0.30
2022-12-08T04:57:49.947Z,0.30
2022-12-08T05:00:17.272Z,0.40
2022-12-08T05:02:43.969Z,0.40
2022-12-08T05:05:10.752Z,0.40
2022-12-08T05:07:37.594Z,0.40
2022-12-08T05:10:05.154Z,0.40
2022-12-08T05:12:32.062Z,0.40
2022-12-08T05:14:58.708Z,0.40
2022-12-08T05:17:25.752Z,0.40
2022-12-08T05:19:52.470Z,0.40
2022-12-08T05:22:19.155Z,0.40
2022-12-08T05:24:47.597Z,0.40
2022-12-08T05:27:15.080Z,0.40
2022-12-08T05:29:42.295Z,0.40
2022-12-08T05:32:09.286Z,0.40
2022-12-08T05:34:36.005Z,0.40
2022-12-08T05:37:02.733Z,0.40
2022-12-08T05:39:29.533Z,0.40
2022-12-08T05:41:56.201Z,0.40
2022-12-08T05:44:22.936Z,0.40
2022-12-08T05:46:49.719Z,0.40
2022-12-08T05:49:16.476Z,0.40
2022-12-08T05:51:43.296Z,0.40
2022-12-08T05:54:10.043Z,0.40
2022-12-08T05:56:36.781Z,0.40
2022-12-08T05:59:06.882Z,0.40
2022-12-08T06:01:33.980Z,0.40
2022-12-08T06:04:02.320Z,0.40
2022-12-08T06:06:29.726Z,0.40
2022-12-08T06:08:56.723Z,0.50
2022-12-08T06:11:28.710Z,0.50
2022-12-08T06:13:56.779Z,0.50
2022-12-08T06:16:26.113Z,0.40
2022-12-08T06:18:53.261Z,0.40
2022-12-08T06:21:20.471Z,0.40
2022-12-08T06:23:52.008Z,0.40
2022-12-08T06:26:19.101Z,0.40
2022-12-08T06:28:45.923Z,0.40
2022-12-08T06:31:18.818Z,0.30
2022-12-08T06:33:45.945Z,0.40
2022-12-08T06:36:15.545Z,0.40
2022-12-08T06:38:43.814Z,0.40
2022-12-08T06:41:12.041Z,0.40
2022-12-08T06:43:39.211Z,0.40
2022-12-08T06:46:08.682Z,0.40
2022-12-08T06:48:35.396Z,0.40
2022-12-08T06:51:14.729Z,0.30
2022-12-08T06:53:42.435Z,0.30
2022-12-08T06:56:10.164Z,0.30
2022-12-08T06:58:37.078Z,0.20
2022-12-08T07:01:05.840Z,0.20
2022-12-08T07:03:32.659Z,0.20
2022-12-08T07:06:03.844Z,0.20
2022-12-08T07:08:31.869Z,0.20
2022-12-08T07:10:58.775Z,0.20
2022-12-08T07:13:25.755Z,0.20
2022-12-08T07:15:52.566Z,0.20
2022-12-08T07:18:19.303Z,0.20
2022-12-08T07:20:46.029Z,0.20
2022-12-08T07:23:12.892Z,0.20
2022-12-08T07:25:39.707Z,0.30
2022-12-08T07:28:12.657Z,0.40
2022-12-08T07:30:39.764Z,0.50
2022-12-08T07:33:06.797Z,0.50
2022-12-08T07:35:35.238Z,0.60
2022-12-08T07:38:02.775Z,0.60
2022-12-08T07:40:29.468Z,0.50
2022-12-08T07:42:56.335Z,0.60
2022-12-08T07:45:28.341Z,0.70
2022-12-08T07:47:58.098Z,0.70
2022-12-08T07:50:24.761Z,0.80
2022-12-08T07:52:51.428Z,0.80
2022-12-08T07:55:18.071Z,0.90
2022-12-08T07:57:44.821Z,0.90
2022-12-08T08:00:12.226Z,0.90
2022-12-08T08:02:39.520Z,0.90
2022-12-08T08:05:06.887Z,1.00
2022-12-08T08:07:33.592Z,1.10
2022-12-08T08:10:01.074Z,1.50
2022-12-08T08:12:32.316Z,1.70
2022-12-08T08:15:01.076Z,1.80
2022-12-08T08:17:28.886Z,1.70
2022-12-08T08:19:56.104Z,1.50
2022-12-08T08:22:22.879Z,1.50
2022-12-08T08:24:49.601Z,1.60
2022-12-08T08:27:16.527Z,1.80
2022-12-08T08:29:43.248Z,1.90
2022-12-08T08:32:10.125Z,2.00
2022-12-08T08:34:36.827Z,2.30
2022-12-08T08:37:03.660Z,2.70
2022-12-08T08:39:31.926Z,2.70
2022-12-08T08:41:58.910Z,3.00
2022-12-08T08:44:25.609Z,2.90
2022-12-08T08:46:52.442Z,3.10
2022-12-08T08:49:20.177Z,3.20
2022-12-08T08:51:47.541Z,3.30
2022-12-08T08:54:14.450Z,3.20
2022-12-08T08:56:41.176Z,3.20
2022-12-08T08:59:09.263Z,3.30
2022-12-08T09:01:36.171Z,3.30
2022-12-08T09:04:03.143Z,3.40
2022-12-08T09:06:29.938Z,3.50
2022-12-08T09:08:56.710Z,3.60
2022-12-08T09:11:23.682Z,3.70
2022-12-08T09:13:52.063Z,3.70
2022-12-08T09:16:22.466Z,3.80
2022-12-08T09:18:49.970Z,3.90
2022-12-08T09:21:25.913Z,4.10
2022-12-08T09:23:57.877Z,4.00
2022-12-08T09:26:25.585Z,4.30
2022-12-08T09:28:53.567Z,4.60
2022-12-08T09:31:21.939Z,5.10
2022-12-08T09:33:51.532Z,5.20
2022-12-08T09:36:18.784Z,5.40
2022-12-08T09:38:46.584Z,5.70
2022-12-08T09:41:36.813Z,5.60
2022-12-08T09:45:00.059Z,5.40
2022-12-08T09:47:47.220Z,5.30
2022-12-08T09:50:31.783Z,5.20
2022-12-08T09:53:09.249Z,4.90
2022-12-08T09:55:57.663Z,4.80
2022-12-08T09:58:24.298Z,5.00
2022-12-08T10:00:50.973Z,5.00
2022-12-08T10:03:18.712Z,5.00
2022-12-08T10:05:57.309Z,5.10
2022-12-08T10:08:37.672Z,4.90
2022-12-08T10:11:14.364Z,5.00
2022-12-08T10:13:57.905Z,5.10
2022-12-08T10:16:42.481Z,5.50
2022-12-08T10:19:21.888Z,4.80
2022-12-08T10:21:49.860Z,4.50
2022-12-08T10:24:26.074Z,4.60
2022-12-08T10:26:54.425Z,4.60
2022-12-08T10:29:21.196Z,4.80
2022-12-08T10:31:47.952Z,5.10
2022-12-08T10:34:20.754Z,5.40
2022-12-08T10:36:49.542Z,5.20
2022-12-08T10:39:39.479Z,5.50
2022-12-08T10:42:21.824Z,5.50
2022-12-08T10:44:57.927Z,5.60
2022-12-08T10:47:26.599Z,5.70
2022-12-08T10:50:21.104Z,5.30
2022-12-08T10:53:07.159Z,5.60
2022-12-08T10:55:43.606Z,5.70
2022-12-08T10:58:31.045Z,5.50
2022-12-08T11:01:01.901Z,5.90
2022-12-08T11:03:33.037Z,6.40
2022-12-08T11:06:07.130Z,6.80
2022-12-08T11:08:49.083Z,7.30
2022-12-08T11:11:17.029Z,7.40
2022-12-08T11:13:43.961Z,7.50
2022-12-08T11:16:14.796Z,7.30
2022-12-08T11:18:44.871Z,6.90
2022-12-08T11:21:18.237Z,7.10
2022-12-08T11:23:50.191Z,6.90
2022-12-08T11:26:33.577Z,6.80
2022-12-08T11:29:00.457Z,6.60
2022-12-08T11:31:57.470Z,6.40
2022-12-08T11:34:58.053Z,6.00
2022-12-08T11:37:35.141Z,5.60
2022-12-08T11:40:07.010Z,5.20
2022-12-08T11:42:50.477Z,5.00
2022-12-08T11:45:24.106Z,4.80
2022-12-08T11:48:04.650Z,4.70
2022-12-08T11:51:06.589Z,4.60
2022-12-08T11:53:53.146Z,4.30
2022-12-08T11:56:34.695Z,4.20
2022-12-08T11:59:08.594Z,4.20
2022-12-08T12:01:39.401Z,4.10
2022-12-08T12:04:45.704Z,4.20
2022-12-08T12:07:26.509Z,4.20
2022-12-08T12:09:59.945Z,4.20
2022-12-08T12:12:39.679Z,4.20
2022-12-08T12:15:44.388Z,4.30
2022-12-08T12:18:22.308Z,4.30
2022-12-08T12:20:58.714Z,4.30
2022-12-08T12:23:46.561Z,4.20
2022-12-08T12:26:25.425Z,4.20
2022-12-08T12:29:15.265Z,4.20
2022-12-08T12:31:47.188Z,4.20
2022-12-08T12:34:17.207Z,4.20
2022-12-08T12:36:51.634Z,4.10
2022-12-08T12:39:26.703Z,4.10
2022-12-08T12:41:57.395Z,4.10
2022-12-08T12:44:32.957Z,4.00
2022-12-08T12:47:01.683Z,4.10
2022-12-08T12:49:40.651Z,4.00
2022-12-08T12:52:33.418Z,3.90
2022-12-08T12:55:00.696Z,4.00
2022-12-08T12:57:37.524Z,4.00
2022-12-08T13:00:04.455Z,4.00
2022-12-08T13:02:44.624Z,4.00
2022-12-08T13:05:19.458Z,4.00
2022-12-08T13:08:10.069Z,3.90
2022-12-08T13:10:39.834Z,3.90
2022-12-08T13:13:09.601Z,3.90
2022-12-08T13:15:41.173Z,3.90
2022-12-08T13:18:26.989Z,3.80
2022-12-08T13:21:06.253Z,3.80
2022-12-08T13:23:42.180Z,3.80
2022-12-08T13:26:19.252Z,3.80
2022-12-08T13:29:01.473Z,3.80
2022-12-08T13:31:48.387Z,3.80
2022-12-08T13:34:41.830Z,3.80
2022-12-08T13:37:11.516Z,3.80
2022-12-08T13:39:44.834Z,3.80
2022-12-08T13:42:41.973Z,3.80
2022-12-08T13:45:27.782Z,3.90
2022-12-08T13:49:26.241Z,4.00
2022-12-08T13:53:34.118Z,4.20
2022-12-08T13:57:25.948Z,4.00
2022-12-08T13:59:52.680Z,4.00
2022-12-08T14:02:32.995Z,4.10
2022-12-08T14:07:49.739Z,4.40
2022-12-08T14:10:21.998Z,4.50
2022-12-08T14:13:01.771Z,4.60
2022-12-08T14:15:34.055Z,4.50
2022-12-08T14:18:03.841Z,4.30
2022-12-08T14:20:42.347Z,4.20
2022-12-08T14:23:19.016Z,4.10
2022-12-08T14:25:48.129Z,3.90
2022-12-08T14:28:14.972Z,3.80
2022-12-08T14:30:42.189Z,3.80
2022-12-08T14:33:14.573Z,3.70
2022-12-08T14:35:41.308Z,3.60
2022-12-08T14:38:16.771Z,3.60
2022-12-08T14:40:45.658Z,3.50
2022-12-08T14:43:25.879Z,3.50
2022-12-08T14:46:00.014Z,3.50
2022-12-08T14:48:28.258Z,3.50
2022-12-08T14:51:07.171Z,3.40
2022-12-08T14:53:38.074Z,3.40
2022-12-08T14:56:26.976Z,3.30
2022-12-08T14:59:05.638Z,3.30
2022-12-08T15:01:33.191Z,3.30
2022-12-08T15:04:12.896Z,3.20
2022-12-08T15:07:20.254Z,3.10
2022-12-08T15:09:50.054Z,3.10
2022-12-08T15:12:26.808Z,3.00
2022-12-08T15:14:56.977Z,3.00
2022-12-08T15:17:49.411Z,2.90
2022-12-08T15:20:27.587Z,2.90
2022-12-08T15:22:58.575Z,2.80
2022-12-08T15:25:25.833Z,2.80
2022-12-08T15:27:57.038Z,2.70
2022-12-08T15:30:26.478Z,2.60
2022-12-08T15:32:54.155Z,2.60
2022-12-08T15:35:21.353Z,2.60
2022-12-08T15:37:48.105Z,2.60
2022-12-08T15:40:20.431Z,2.50
2022-12-08T15:42:47.185Z,2.50
2022-12-08T15:45:15.379Z,2.50
2022-12-08T15:47:43.573Z,2.50
2022-12-08T15:50:19.657Z,2.40
2022-12-08T15:52:47.115Z,2.40
2022-12-08T15:55:16.120Z,2.40
2022-12-08T16:00:52.217Z,2.40
2022-12-08T16:04:08.936Z,2.40
2022-12-08T16:09:12.536Z,2.40
2022-12-08T16:12:07.604Z,2.40
2022-12-08T16:17:22.389Z,2.30
2022-12-08T16:19:49.242Z,2.30
2022-12-08T16:25:24.393Z,2.30
2022-12-08T16:28:37.073Z,2.30
2022-12-08T16:30:41.231Z,2.30
2022-12-08T16:33:09.399Z,2.20
2022-12-08T16:35:36.037Z,2.20
2022-12-08T16:38:02.907Z,2.20
2022-12-08T16:40:30.504Z,2.20
2022-12-08T16:42:57.282Z,2.20
2022-12-08T16:45:29.585Z,2.20
2022-12-08T16:47:58.857Z,2.10
2022-12-08T16:50:31.298Z,2.10
2022-12-08T16:53:01.140Z,2.10
2022-12-08T16:55:28.181Z,2.10
2022-12-08T16:57:55.997Z,2.10
2022-12-08T17:00:24.946Z,2.00
2022-12-08T17:02:52.032Z,2.00
2022-12-08T17:05:20.846Z,2.00
2022-12-08T17:07:50.306Z,1.90
2022-12-08T17:10:20.367Z,1.90
2022-12-08T17:12:47.315Z,1.90
2022-12-08T17:15:18.368Z,1.80
2022-12-08T17:17:45.179Z,1.80
2022-12-08T17:20:14.903Z,1.70
2022-12-08T17:22:41.629Z,1.60
2022-12-08T17:25:09.132Z,1.60
2022-12-08T17:27:36.388Z,1.50
2022-12-08T17:30:04.156Z,1.50
2022-12-08T17:32:31.213Z,1.40
2022-12-08T17:34:57.950Z,1.40
2022-12-08T17:37:24.621Z,1.30
2022-12-08T17:39:51.364Z,1.20
2022-12-08T17:42:18.096Z,1.20
2022-12-08T17:44:46.614Z,1.10
2022-12-08T17:47:13.341Z,1.10
2022-12-08T17:49:40.198Z,1.00
2022-12-08T17:52:06.950Z,1.00
2022-12-08T17:54:34.276Z,1.00
2022-12-08T17:57:01.019Z,0.90
2022-12-08T17:59:28.871Z,0.90
2022-12-08T18:01:57.401Z,0.90
2022-12-08T18:04:25.507Z,0.80
2022-12-08T18:06:52.264Z,0.70
2022-12-08T18:09:19.409Z,0.80
2022-12-08T18:11:46.398Z,0.70
2022-12-08T18:14:14.315Z,0.70
2022-12-08T18:16:43.869Z,0.70
2022-12-08T18:19:11.917Z,0.70
2022-12-08T18:21:39.456Z,0.60
2022-12-08T18:24:07.397Z,0.50
2022-12-08T18:26:34.482Z,0.40
2022-12-08T18:29:01.625Z,0.30
2022-12-08T18:31:28.381Z,0.30
2022-12-08T18:33:55.203Z,0.30
2022-12-08T18:36:24.164Z,0.30
2022-12-08T18:38:52.257Z,0.20
2022-12-08T18:41:25.890Z,0.10
2022-12-08T18:43:57.168Z,0.10
2022-12-08T18:46:25.393Z,0.10
2022-12-08T18:48:52.269Z,0.10
2022-12-08T18:51:23.951Z,0.10
2022-12-08T18:53:51.579Z,0.00
2022-12-08T18:56:30.014Z,0.00
2022-12-08T18:59:03.290Z,0.00
2022-12-08T19:01:31.811Z,0.10
2022-12-08T19:06:50.462Z,0.10
2022-12-08T19:09:17.430Z,0.20
2022-12-08T19:11:44.407Z,0.20
2022-12-08T19:14:11.617Z,0.20
2022-12-08T19:16:38.642Z,0.20
2022-12-08T19:19:05.604Z,0.20
2022-12-08T19:21:32.913Z,0.00
2022-12-08T19:24:00.323Z,0.10
2022-12-08T19:26:28.173Z,0.00
2022-12-08T19:28:57.148Z,0.10
2022-12-08T19:31:24.027Z,0.00
2022-12-08T19:33:50.831Z,-0.10
2022-12-08T19:36:21.121Z,-0.10
2022-12-08T19:39:06.896Z,-0.20
2022-12-08T19:41:54.481Z,-0.20
2022-12-08T19:44:34.379Z,-0.20
2022-12-08T19:47:01.885Z,-0.30
2022-12-08T19:49:29.007Z,-0.30
2022-12-08T19:51:56.008Z,-0.20
2022-12-08T19:54:22.732Z,-0.30
2022-12-08T19:56:49.501Z,-0.40
2022-12-08T19:59:16.363Z,-0.50
2022-12-08T20:01:44.169Z,-0.60
2022-12-08T20:04:15.296Z,-0.70
2022-12-08T20:06:42.691Z,-0.80
2022-12-08T20:09:10.403Z,-0.90
2022-12-08T20:11:38.189Z,-0.90
2022-12-08T20:14:05.043Z,-0.90
2022-12-08T20:16:32.092Z,-0.90
2022-12-08T20:18:58.990Z,-0.90
2022-12-08T20:21:25.710Z,-0.90
2022-12-08T20:23:52.482Z,-0.90
2022-12-08T20:26:21.628Z,-0.90
2022-12-08T20:28:48.996Z,-0.90
2022-12-08T20:31:27.647Z,-0.90
2022-12-08T20:33:54.809Z,-1.00
2022-12-08T20:36:22.751Z,-1.00
2022-12-08T20:38:52.171Z,-1.00
2022-12-08T20:41:20.224Z,-1.00
2022-12-08T20:43:47.921Z,-0.90
2022-12-08T20:46:16.619Z,-1.00
2022-12-08T20:48:44.546Z,-1.00
2022-12-08T20:51:18.995Z,-1.00
2022-12-08T20:53:46.457Z,-1.00
2022-12-08T20:56:22.353Z,-1.00
2022-12-08T20:58:50.093Z,-1.10
2022-12-08T21:01:20.063Z,-1.10
2022-12-08T21:03:47.619Z,-1.10
2022-12-08T21:06:15.467Z,-1.10
2022-12-08T21:08:42.927Z,-1.10
2022-12-08T21:11:10.116Z,-1.10
2022-12-08T21:13:38.664Z,-1.20
2022-12-08T21:16:09.217Z,-1.20
2022-12-08T21:18:39.674Z,-1.20
2022-12-08T21:21:13.049Z,-1.20
2022-12-08T21:23:41.727Z,-1.30
2022-12-08T21:26:20.502Z,-1.30
2022-12-08T21:28:47.913Z,-1.30
2022-12-08T21:31:17.487Z,-1.30
2022-12-08T21:33:44.532Z,-1.40
2022-12-08T21:36:13.736Z,-1.30
2022-12-08T21:38:41.199Z,-1.40
2022-12-08T21:41:11.073Z,-1.40
2022-12-08T21:43:38.063Z,-1.50
2022-12-08T21:46:05.647Z,-1.40
2022-12-08T21:48:32.937Z,-1.40
2022-12-08T21:51:05.395Z,-1.60
2022-12-08T21:53:32.367Z,-1.60
2022-12-08T21:55:59.157Z,-1.70
2022-12-08T21:58:26.527Z,-1.70
2022-12-08T22:00:53.562Z,-1.60
2022-12-08T22:03:20.474Z,-1.50
2022-12-08T22:05:47.516Z,-1.50
2022-12-08T22:08:14.399Z,-1.50
2022-12-08T22:10:46.330Z,-1.40
2022-12-08T22:13:13.201Z,-1.30
2022-12-08T22:15:39.987Z,-1.20
2022-12-08T22:18:06.989Z,-1.20
2022-12-08T22:20:35.416Z,-1.30
2022-12-08T22:23:05.322Z,-1.30
2022-12-08T22:25:32.264Z,-1.20
2022-12-08T22:27:59.265Z,-1.20
2022-12-08T22:30:26.313Z,-1.30
2022-12-08T22:32:53.219Z,-1.30
2022-12-08T22:35:20.710Z,-1.20
2022-12-08T22:37:49.763Z,-1.20
2022-12-08T22:40:16.724Z,-1.20
2022-12-08T22:42:44.121Z,-1.30
2022-12-08T22:45:11.827Z,-1.10
2022-12-08T22:47:38.873Z,-1.10
2022-12-08T22:50:06.936Z,-1.10
2022-12-08T22:52:34.621Z,-1.10
2022-12-08T22:55:01.615Z,-1.20
2022-12-08T22:57:28.742Z,-1.20
2022-12-08T22:59:55.429Z,-1.20
2022-12-08T23:02:22.187Z,-1.10
2022-12-08T23:04:49.397Z,-1.10
2022-12-08T23:07:16.430Z,-1.10
2022-12-08T23:09:43.729Z,-1.10
2022-12-08T23:12:10.616Z,-1.10
2022-12-08T23:14:37.328Z,-1.10
2022-12-08T23:17:04.363Z,-1.10
2022-12-08T23:19:31.131Z,-1.20
2022-12-08T23:21:57.871Z,-1.20
2022-12-08T23:24:24.566Z,-1.30
2022-12-08T23:26:51.467Z,-1.30
2022-12-08T23:29:18.320Z,-1.20
2022-12-08T23:31:45.245Z,-1.20
2022-12-08T23:34:12.128Z,-1.30
2022-12-08T23:36:39.040Z,-1.30
2022-12-08T23:39:05.989Z,-1.30
2022-12-08T23:41:33.201Z,-1.20
2022-12-08T23:43:59.967Z,-1.20
2022-12-08T23:46:26.888Z,-1.10
2022-12-08T23:48:53.787Z,-1.10
2022-12-08T23:51:20.850Z,-1.30
2022-12-08T23:53:47.998Z,-1.40
2022-12-08T23:56:17.387Z,-1.30
2022-12-08T23:58:45.074Z,-1.20
